Flugplatz Paderborn Lippstadt

Bericht für EDLP

vom 17.10. um 10:20 UTC

variable Windrichtung mit 2 kt

Sichtweite 9000 m

keine Wolken

Temperatur 17.0°C

Taupunkt 12.0°C

Luftfeuchtigkeit 72%

Luftdruck 1022 hPa

EDLP 171020Z VRB02KT 9000 NSC 17/12 Q1022

Prognose für EDLP

vom 17.10. um 05:00 UTC

Zwischen 06:00 UTC und 10:00 UTC

Wind 7 kt aus 190°

Sichtweite 10 km oder mehr

keine signifikanten Wettererscheinungen

keine Wolken


Zwischen 10:00 und 12:00 UTC übergehend zu

Wind 6 kt aus 260°

Sichtweite 10 km oder mehr

keine signifikanten Wettererscheinungen

keine Wolken


Zwischen 15:00 und 18:00 UTC übergehend zu

variable Windrichtung mit 3 kt

Sichtweite 10 km oder mehr

keine signifikanten Wettererscheinungen

keine Wolken

TAF EDLP 170500Z 1706/1806 19007KT CAVOK BECMG 1710/1712 26006KT BECMG 1715/1718 VRB03KT
Impressum